createdAt,value
2023-05-20T00:00:07.868Z,0.00
2023-05-20T00:00:35.619Z,0.00
2023-05-20T00:00:54.911Z,0.00
2023-05-20T00:01:26.924Z,0.00
2023-05-20T00:01:59.308Z,0.00
2023-05-20T00:02:31.298Z,0.00
2023-05-20T00:03:03.003Z,0.00
2023-05-20T00:03:35.805Z,0.00
2023-05-20T00:04:07.135Z,0.00
2023-05-20T00:04:35.644Z,0.00
2023-05-20T00:04:55.155Z,0.00
2023-05-20T00:05:26.939Z,0.00
2023-05-20T00:05:59.756Z,0.00
2023-05-20T00:06:31.472Z,0.00
2023-05-20T00:07:03.653Z,0.00
2023-05-20T00:07:35.533Z,0.00
2023-05-20T00:08:07.919Z,0.00
2023-05-20T00:08:36.341Z,0.00
2023-05-20T00:08:54.901Z,0.00
2023-05-20T00:09:33.033Z,0.00
2023-05-20T00:09:35.514Z,0.00
2023-05-20T00:09:59.344Z,0.00
2023-05-20T00:10:30.884Z,0.00
2023-05-20T00:11:02.899Z,0.00
2023-05-20T00:11:35.597Z,0.00
2023-05-20T00:12:06.907Z,0.00
2023-05-20T00:12:35.602Z,0.00
2023-05-20T00:12:54.905Z,0.00
2023-05-20T00:13:27.826Z,0.00
2023-05-20T00:13:59.462Z,0.00
2023-05-20T00:14:31.943Z,0.00
2023-05-20T00:15:02.914Z,0.00
2023-05-20T00:15:37.164Z,0.00
2023-05-20T00:16:06.971Z,0.00
2023-05-20T00:16:35.591Z,0.00
2023-05-20T00:16:55.105Z,0.00
2023-05-20T00:17:27.118Z,0.00
2023-05-20T00:17:59.877Z,0.00
2023-05-20T00:18:30.989Z,0.00
2023-05-20T00:19:02.992Z,0.00
2023-05-20T00:19:35.435Z,0.00
2023-05-20T00:20:06.979Z,0.00
2023-05-20T00:20:35.636Z,0.00
2023-05-20T00:20:55.236Z,0.00
2023-05-20T00:21:27.706Z,0.00
2023-05-20T00:21:59.370Z,0.00
2023-05-20T00:22:31.794Z,0.00
2023-05-20T00:23:02.910Z,0.00
2023-05-20T00:23:35.988Z,0.00
2023-05-20T00:24:06.882Z,0.00
2023-05-20T00:24:35.586Z,0.00
2023-05-20T00:24:54.894Z,0.00
2023-05-20T00:25:26.888Z,0.00
2023-05-20T00:26:00.716Z,0.00
2023-05-20T00:26:30.884Z,0.00
2023-05-20T00:27:03.781Z,0.00
2023-05-20T00:27:35.336Z,0.00
2023-05-20T00:28:07.958Z,0.00
2023-05-20T00:28:35.700Z,0.00
2023-05-20T00:28:54.894Z,0.00
2023-05-20T00:29:26.966Z,0.00
2023-05-20T00:29:59.319Z,0.00
2023-05-20T00:30:30.867Z,0.00
2023-05-20T00:31:02.876Z,0.00
2023-05-20T00:31:35.636Z,0.00
2023-05-20T00:32:06.939Z,0.00
2023-05-20T00:32:35.607Z,0.00
2023-05-20T00:32:55.307Z,0.00
2023-05-20T00:33:27.729Z,0.00
2023-05-20T00:33:59.250Z,0.00
2023-05-20T00:34:31.764Z,0.00
2023-05-20T00:35:02.898Z,0.00
2023-05-20T00:35:36.446Z,0.00
2023-05-20T00:36:06.851Z,0.00
2023-05-20T00:36:35.588Z,0.00
2023-05-20T00:36:54.848Z,0.00
2023-05-20T00:37:26.829Z,0.00
2023-05-20T00:37:59.709Z,0.00
2023-05-20T00:38:30.846Z,0.00
2023-05-20T00:39:03.713Z,0.00
2023-05-20T00:39:35.624Z,0.00
2023-05-20T00:40:07.661Z,0.00
2023-05-20T00:40:36.443Z,0.00
2023-05-20T00:40:55.178Z,0.00
2023-05-20T00:41:26.848Z,0.00
2023-05-20T00:42:04.992Z,0.00
2023-05-20T00:42:15.610Z,0.00
2023-05-20T00:42:35.715Z,0.00
2023-05-20T00:43:02.902Z,0.00
2023-05-20T00:43:36.272Z,0.00
2023-05-20T00:44:06.857Z,0.00
2023-05-20T00:44:35.749Z,0.00
2023-05-20T00:44:54.883Z,0.00
2023-05-20T00:45:27.761Z,0.00
2023-05-20T00:45:59.424Z,0.00
2023-05-20T00:46:31.774Z,0.00
2023-05-20T00:47:03.056Z,0.00
2023-05-20T00:47:36.843Z,0.00
2023-05-20T00:48:07.019Z,0.00
2023-05-20T00:48:35.598Z,0.00
2023-05-20T00:48:54.833Z,0.00
2023-05-20T00:49:26.864Z,0.00
2023-05-20T00:50:00.042Z,0.00
2023-05-20T00:50:30.848Z,0.00
2023-05-20T00:51:03.749Z,0.00
2023-05-20T00:51:35.272Z,0.00
2023-05-20T00:52:07.766Z,0.00
2023-05-20T00:52:35.745Z,0.00
2023-05-20T00:52:54.821Z,0.00
2023-05-20T00:53:26.867Z,0.00
2023-05-20T00:53:59.148Z,0.00
2023-05-20T00:54:30.845Z,0.00
2023-05-20T00:55:02.856Z,0.00
2023-05-20T00:55:35.857Z,0.00
2023-05-20T00:56:06.805Z,0.00
2023-05-20T00:56:35.618Z,0.00
2023-05-20T00:56:56.032Z,0.00
2023-05-20T00:57:27.875Z,0.00
2023-05-20T00:57:59.242Z,0.00
2023-05-20T00:58:31.728Z,0.00
2023-05-20T00:59:02.874Z,0.00
2023-05-20T00:59:35.746Z,0.00
2023-05-20T01:00:07.103Z,0.00
2023-05-20T01:00:35.746Z,0.00
2023-05-20T01:00:54.882Z,0.00
2023-05-20T01:01:26.805Z,0.00
2023-05-20T01:01:59.729Z,0.00
2023-05-20T01:02:30.831Z,0.00
2023-05-20T01:03:03.912Z,0.00
2023-05-20T01:03:35.730Z,0.00
2023-05-20T01:04:07.794Z,0.00
2023-05-20T01:04:35.766Z,0.00
2023-05-20T01:04:54.858Z,0.00
2023-05-20T01:05:26.844Z,0.00
2023-05-20T01:05:59.078Z,0.00
2023-05-20T01:06:30.848Z,0.00
2023-05-20T01:07:02.838Z,0.00
2023-05-20T01:07:35.782Z,0.00
2023-05-20T01:08:06.793Z,0.00
2023-05-20T01:08:35.827Z,0.00
2023-05-20T01:08:54.811Z,0.00
2023-05-20T01:09:27.770Z,0.00
2023-05-20T01:09:59.115Z,0.00
2023-05-20T01:10:31.625Z,0.00
2023-05-20T01:11:02.842Z,0.00
2023-05-20T01:11:35.800Z,0.00
2023-05-20T01:12:06.800Z,0.00
2023-05-20T01:12:35.753Z,0.00
2023-05-20T01:12:54.973Z,0.00
2023-05-20T01:13:26.944Z,0.00
2023-05-20T01:13:59.872Z,0.00
2023-05-20T01:14:30.877Z,0.00
2023-05-20T01:15:03.903Z,0.00
2023-05-20T01:15:35.925Z,0.00
2023-05-20T01:16:07.869Z,0.00
2023-05-20T01:16:35.795Z,0.00
2023-05-20T01:16:54.870Z,0.00
2023-05-20T01:17:27.263Z,0.00
2023-05-20T01:17:59.190Z,0.00
2023-05-20T01:18:30.807Z,0.00
2023-05-20T01:19:02.887Z,0.00
2023-05-20T01:19:35.105Z,0.00
2023-05-20T01:20:06.825Z,0.00
2023-05-20T01:20:35.709Z,0.00
2023-05-20T01:20:54.820Z,0.00
2023-05-20T01:21:27.775Z,0.00
2023-05-20T01:21:59.103Z,0.00
2023-05-20T01:22:31.720Z,0.00
2023-05-20T01:23:02.962Z,0.00
2023-05-20T01:23:36.773Z,0.00
2023-05-20T01:24:06.762Z,0.00
2023-05-20T01:24:35.628Z,0.00
2023-05-20T01:24:54.780Z,0.00
2023-05-20T01:25:26.851Z,0.00
2023-05-20T01:25:59.712Z,0.00
2023-05-20T01:26:30.880Z,0.00
2023-05-20T01:27:03.810Z,0.00
2023-05-20T01:27:35.094Z,0.00
2023-05-20T01:28:07.708Z,0.00
2023-05-20T01:28:35.791Z,0.00
2023-05-20T01:28:54.865Z,0.00
2023-05-20T01:29:26.828Z,0.00
2023-05-20T01:29:43.264Z,0.00
2023-05-20T01:30:22.114Z,0.00
2023-05-20T01:30:31.707Z,0.00
2023-05-20T01:31:02.904Z,0.00
2023-05-20T01:31:36.746Z,0.00
2023-05-20T01:32:06.813Z,0.00
2023-05-20T01:32:35.707Z,0.00
2023-05-20T01:32:54.894Z,0.00
2023-05-20T01:33:26.819Z,0.00
2023-05-20T01:33:43.264Z,0.00
2023-05-20T01:34:14.854Z,0.00
2023-05-20T01:34:35.786Z,0.00
2023-05-20T01:35:03.724Z,0.00
2023-05-20T01:35:35.377Z,0.00
2023-05-20T01:36:07.800Z,0.00
2023-05-20T01:36:35.800Z,0.00
2023-05-20T01:36:55.955Z,0.00
2023-05-20T01:37:26.847Z,0.00
2023-05-20T01:37:58.879Z,0.00
2023-05-20T01:38:30.817Z,0.00
2023-05-20T01:39:08.956Z,0.00
2023-05-20T01:39:19.636Z,0.00
2023-05-20T01:39:50.838Z,0.00
2023-05-20T01:40:23.823Z,0.00
2023-05-20T01:40:40.941Z,0.00
2023-05-20T01:41:11.026Z,0.00
2023-05-20T01:41:35.863Z,0.00
2023-05-20T01:41:59.078Z,0.00
2023-05-20T01:42:31.712Z,0.00
2023-05-20T01:43:02.839Z,0.00
2023-05-20T01:43:36.293Z,0.00
2023-05-20T01:44:07.505Z,0.00
2023-05-20T01:44:35.848Z,0.00
2023-05-20T01:44:54.813Z,0.00
2023-05-20T01:45:26.803Z,0.00
2023-05-20T01:45:43.424Z,0.00
2023-05-20T01:46:14.881Z,0.00
2023-05-20T01:46:35.687Z,0.00
2023-05-20T01:47:03.665Z,0.00
2023-05-20T01:47:35.163Z,0.00
2023-05-20T01:48:13.360Z,0.00
2023-05-20T01:48:23.774Z,0.00
2023-05-20T01:48:41.005Z,0.00
2023-05-20T01:49:10.872Z,0.00
2023-05-20T01:49:35.812Z,0.00
2023-05-20T01:49:59.186Z,0.00
2023-05-20T01:50:31.631Z,0.00
2023-05-20T01:51:02.874Z,0.00
2023-05-20T01:51:35.834Z,0.00
2023-05-20T01:52:06.795Z,0.00
2023-05-20T01:52:35.744Z,0.00
2023-05-20T01:52:55.387Z,0.00
2023-05-20T01:53:26.827Z,0.00
2023-05-20T01:53:43.347Z,0.00
2023-05-20T01:54:14.816Z,0.00
2023-05-20T01:54:35.650Z,0.00
2023-05-20T01:55:03.561Z,0.00
2023-05-20T01:55:35.436Z,0.00
2023-05-20T01:56:07.669Z,0.00
2023-05-20T01:56:35.603Z,0.00
2023-05-20T01:56:54.770Z,0.00
2023-05-20T01:57:27.432Z,0.00
2023-05-20T01:57:43.285Z,0.00
2023-05-20T01:58:15.568Z,0.00
2023-05-20T01:58:35.629Z,0.00
2023-05-20T01:59:02.804Z,0.00
2023-05-20T01:59:34.821Z,0.00
2023-05-20T02:00:06.984Z,0.00
2023-05-20T02:00:35.678Z,0.00
2023-05-20T02:00:54.806Z,0.00
2023-05-20T02:01:27.752Z,0.00
2023-05-20T02:01:58.856Z,0.00
2023-05-20T02:02:31.686Z,0.00
2023-05-20T02:03:02.842Z,0.00
2023-05-20T02:03:36.725Z,0.00
2023-05-20T02:04:06.878Z,0.00
2023-05-20T02:04:35.825Z,0.00
2023-05-20T02:04:54.754Z,0.00
2023-05-20T02:05:26.844Z,0.00
2023-05-20T02:05:43.516Z,0.00
2023-05-20T02:06:14.866Z,0.00
2023-05-20T02:06:35.681Z,0.00
2023-05-20T02:07:03.548Z,0.00
2023-05-20T02:07:34.790Z,0.00
2023-05-20T02:08:07.669Z,0.00
2023-05-20T02:08:35.790Z,0.00
2023-05-20T02:08:54.753Z,0.00
2023-05-20T02:09:26.827Z,0.00
2023-05-20T02:09:43.298Z,0.00
2023-05-20T02:10:15.694Z,0.00
2023-05-20T02:10:35.650Z,0.00
2023-05-20T02:11:02.798Z,0.00
2023-05-20T02:11:34.918Z,0.00
2023-05-20T02:12:06.878Z,0.00
2023-05-20T02:12:35.660Z,0.00
2023-05-20T02:12:54.740Z,0.00
2023-05-20T02:13:27.736Z,0.00
2023-05-20T02:13:58.758Z,0.00
2023-05-20T02:14:31.658Z,0.00
2023-05-20T02:15:09.832Z,0.00
2023-05-20T02:15:18.726Z,0.00
2023-05-20T02:15:50.859Z,0.00
2023-05-20T02:16:22.813Z,0.00
2023-05-20T02:16:40.950Z,0.00
2023-05-20T02:17:10.764Z,0.00
2023-05-20T02:17:35.646Z,0.00
2023-05-20T02:17:58.817Z,0.00
2023-05-20T02:18:30.909Z,0.00
2023-05-20T02:19:03.812Z,0.00
2023-05-20T02:19:34.760Z,0.00
2023-05-20T02:20:07.553Z,0.00
2023-05-20T02:20:35.618Z,0.00
2023-05-20T02:20:54.808Z,0.00
2023-05-20T02:21:26.818Z,0.00
2023-05-20T02:21:43.254Z,0.00
2023-05-20T02:22:15.638Z,0.00
2023-05-20T02:22:35.622Z,0.00
2023-05-20T02:23:02.775Z,0.00
2023-05-20T02:23:34.773Z,0.00
2023-05-20T02:24:07.660Z,0.00
2023-05-20T02:24:35.621Z,0.00
2023-05-20T02:24:54.866Z,0.00
2023-05-20T02:25:27.534Z,0.00
2023-05-20T02:25:58.713Z,0.00
2023-05-20T02:26:31.727Z,0.00
2023-05-20T02:27:02.809Z,0.00
2023-05-20T02:27:36.051Z,0.00
2023-05-20T02:28:06.777Z,0.00
2023-05-20T02:28:35.891Z,0.00
2023-05-20T02:28:54.738Z,0.00
2023-05-20T02:29:26.772Z,0.00
2023-05-20T02:29:43.358Z,0.00
2023-05-20T02:30:14.799Z,0.00
2023-05-20T02:30:35.601Z,0.00
2023-05-20T02:31:03.622Z,0.00
2023-05-20T02:31:34.766Z,0.00
2023-05-20T02:32:07.754Z,0.00
2023-05-20T02:32:35.810Z,0.00
2023-05-20T02:32:54.810Z,0.00
2023-05-20T02:33:26.718Z,0.00
2023-05-20T02:33:43.258Z,0.00
2023-05-20T02:34:15.725Z,0.00
2023-05-20T02:34:35.614Z,0.00
2023-05-20T02:35:02.781Z,0.00
2023-05-20T02:35:34.883Z,0.00
2023-05-20T02:36:13.249Z,0.00
2023-05-20T02:36:23.864Z,0.00
2023-05-20T02:36:40.889Z,0.00
2023-05-20T02:37:10.786Z,0.00
2023-05-20T02:37:35.599Z,0.00
2023-05-20T02:37:58.830Z,0.00
2023-05-20T02:38:31.652Z,0.00
2023-05-20T02:39:02.749Z,0.00
2023-05-20T02:39:36.193Z,0.00
2023-05-20T02:40:06.810Z,0.00
2023-05-20T02:40:35.725Z,0.00
2023-05-20T02:40:54.768Z,0.00
2023-05-20T02:41:26.757Z,0.00
2023-05-20T02:41:43.243Z,0.00
2023-05-20T02:42:14.758Z,0.00
2023-05-20T02:42:36.138Z,0.00
2023-05-20T02:43:03.586Z,0.00
2023-05-20T02:43:36.526Z,0.00
2023-05-20T02:44:07.722Z,0.00
2023-05-20T02:44:35.719Z,0.00
2023-05-20T02:44:54.734Z,0.00
2023-05-20T02:45:26.855Z,0.00
2023-05-20T02:45:43.616Z,0.00
2023-05-20T02:46:15.712Z,0.00
2023-05-20T02:46:36.615Z,0.00
2023-05-20T02:47:02.744Z,0.00
2023-05-20T02:47:34.786Z,0.00
2023-05-20T02:48:06.829Z,0.00
2023-05-20T02:48:35.610Z,0.00
2023-05-20T02:48:54.731Z,0.00
2023-05-20T02:49:27.658Z,0.00
2023-05-20T02:49:58.730Z,0.00
2023-05-20T02:50:31.693Z,0.00
2023-05-20T02:51:02.768Z,0.00
2023-05-20T02:51:36.726Z,0.00
2023-05-20T02:52:06.801Z,0.00
2023-05-20T02:52:35.907Z,0.00
2023-05-20T02:52:54.867Z,0.00
2023-05-20T02:53:26.721Z,0.00
2023-05-20T02:53:43.198Z,0.00
2023-05-20T02:54:14.725Z,0.00
2023-05-20T02:54:35.652Z,0.00
2023-05-20T02:55:03.676Z,0.00
2023-05-20T02:55:35.146Z,0.00
2023-05-20T02:56:07.705Z,0.00
2023-05-20T02:56:35.890Z,0.00
2023-05-20T02:56:54.764Z,0.00
2023-05-20T02:57:26.735Z,0.00
2023-05-20T02:57:43.266Z,0.00
2023-05-20T02:58:15.572Z,0.00
2023-05-20T02:58:35.589Z,0.00
2023-05-20T02:59:02.665Z,0.00
2023-05-20T02:59:34.731Z,0.00
2023-05-20T03:00:07.201Z,0.00
2023-05-20T03:00:35.612Z,0.00
2023-05-20T03:00:54.782Z,0.00
2023-05-20T03:01:27.678Z,0.00
2023-05-20T03:01:58.742Z,0.00
2023-05-20T03:02:31.546Z,0.00
2023-05-20T03:03:02.857Z,0.00
2023-05-20T03:03:36.566Z,0.00
2023-05-20T03:04:06.800Z,0.00
2023-05-20T03:04:35.715Z,0.00
2023-05-20T03:04:55.045Z,0.00
2023-05-20T03:05:26.847Z,0.00
2023-05-20T03:05:59.890Z,0.00
2023-05-20T03:06:30.753Z,0.00
2023-05-20T03:07:03.707Z,0.00
2023-05-20T03:07:34.695Z,0.00
2023-05-20T03:08:07.652Z,0.00
2023-05-20T03:08:35.568Z,0.00
2023-05-20T03:08:54.805Z,0.00
2023-05-20T03:09:26.759Z,0.00
2023-05-20T03:09:58.755Z,0.00
2023-05-20T03:10:30.759Z,0.00
2023-05-20T03:11:04.149Z,0.00
2023-05-20T03:11:34.667Z,0.00
2023-05-20T03:12:06.778Z,0.00
2023-05-20T03:12:35.550Z,0.00
2023-05-20T03:12:54.735Z,0.00
2023-05-20T03:13:27.716Z,0.00
2023-05-20T03:13:58.887Z,0.00
2023-05-20T03:14:31.566Z,0.00
2023-05-20T03:15:02.753Z,0.00
2023-05-20T03:15:36.266Z,0.00
2023-05-20T03:16:06.831Z,0.00
2023-05-20T03:16:36.191Z,0.00
2023-05-20T03:16:54.747Z,0.00
2023-05-20T03:17:26.723Z,0.00
2023-05-20T03:17:44.046Z,0.00
2023-05-20T03:18:15.009Z,0.00
2023-05-20T03:18:35.580Z,0.00
2023-05-20T03:19:02.761Z,0.00
2023-05-20T03:19:34.693Z,0.00
2023-05-20T03:20:07.653Z,0.00
2023-05-20T03:20:35.594Z,0.00
2023-05-20T03:20:54.772Z,0.00
2023-05-20T03:21:26.655Z,0.00
2023-05-20T03:21:43.171Z,0.00
2023-05-20T03:22:15.627Z,0.00
2023-05-20T03:22:35.593Z,0.00
2023-05-20T03:23:02.712Z,0.00
2023-05-20T03:23:34.735Z,0.00
2023-05-20T03:24:06.760Z,0.00
2023-05-20T03:24:35.576Z,0.00
2023-05-20T03:24:54.777Z,0.00
2023-05-20T03:25:27.564Z,0.00
2023-05-20T03:25:58.786Z,0.00
2023-05-20T03:26:31.583Z,0.00
2023-05-20T03:27:02.682Z,0.00
2023-05-20T03:27:36.503Z,0.00
2023-05-20T03:28:06.800Z,0.00
2023-05-20T03:28:36.107Z,0.00
2023-05-20T03:28:54.758Z,0.00
2023-05-20T03:29:26.704Z,0.00
2023-05-20T03:29:43.249Z,0.00
2023-05-20T03:30:14.734Z,0.00
2023-05-20T03:30:35.583Z,0.00
2023-05-20T03:31:03.706Z,0.00
2023-05-20T03:31:34.738Z,0.00
2023-05-20T03:32:09.466Z,0.00
2023-05-20T03:32:35.504Z,0.00
2023-05-20T03:32:54.754Z,0.00
2023-05-20T03:33:26.767Z,0.36
2023-05-20T03:33:43.327Z,0.00
2023-05-20T03:34:15.553Z,0.00
2023-05-20T03:34:35.532Z,0.00
2023-05-20T03:35:02.857Z,0.00
2023-05-20T03:35:36.336Z,0.00
2023-05-20T03:36:06.670Z,0.36
2023-05-20T03:36:35.624Z,0.00
2023-05-20T03:36:55.159Z,0.85
2023-05-20T03:37:27.581Z,0.00
2023-05-20T03:37:58.730Z,0.36
2023-05-20T03:38:31.548Z,0.36
2023-05-20T03:39:03.773Z,1.22
2023-05-20T03:39:36.012Z,0.85
2023-05-20T03:40:06.757Z,1.22
2023-05-20T03:40:37.121Z,1.22
2023-05-20T03:40:54.799Z,1.22
2023-05-20T03:41:26.707Z,1.71
2023-05-20T03:41:44.172Z,1.71
2023-05-20T03:42:14.786Z,0.85
2023-05-20T03:42:35.924Z,2.08
2023-05-20T03:43:02.756Z,1.71
2023-05-20T03:43:34.680Z,2.08
2023-05-20T03:44:07.798Z,2.08
2023-05-20T03:44:35.754Z,2.08
2023-05-20T03:44:54.740Z,2.57
2023-05-20T03:45:26.798Z,2.57
2023-05-20T03:45:43.685Z,1.71
2023-05-20T03:46:15.629Z,2.57
2023-05-20T03:46:35.888Z,1.71
2023-05-20T03:47:02.818Z,2.94
2023-05-20T03:47:34.802Z,2.94
2023-05-20T03:48:06.737Z,2.57
2023-05-20T03:48:35.536Z,2.94
2023-05-20T03:48:55.101Z,2.57
2023-05-20T03:49:27.604Z,2.94
2023-05-20T03:49:58.698Z,2.94
2023-05-20T03:50:31.544Z,2.94
2023-05-20T03:51:02.696Z,2.94
2023-05-20T03:51:35.953Z,3.79
2023-05-20T03:52:14.092Z,3.79
2023-05-20T03:52:24.289Z,3.79
2023-05-20T03:52:54.774Z,4.28
2023-05-20T03:53:26.702Z,4.28
2023-05-20T03:53:44.150Z,4.77
2023-05-20T03:54:14.728Z,4.28
2023-05-20T03:54:35.522Z,5.14
2023-05-20T03:55:02.903Z,4.28
2023-05-20T03:55:34.893Z,5.63
2023-05-20T03:56:07.593Z,4.77
2023-05-20T03:56:35.728Z,5.63
2023-05-20T03:56:54.703Z,4.77
2023-05-20T03:57:26.727Z,5.14
2023-05-20T03:57:43.244Z,5.14
2023-05-20T03:58:15.653Z,5.99
2023-05-20T03:58:35.676Z,5.63
2023-05-20T03:59:02.786Z,5.14
2023-05-20T03:59:35.214Z,5.63
2023-05-20T04:00:06.782Z,5.63
2023-05-20T04:00:36.504Z,5.63
2023-05-20T04:00:54.965Z,5.99
2023-05-20T04:01:27.640Z,6.48
2023-05-20T04:01:58.866Z,5.99
2023-05-20T04:02:31.965Z,5.63
2023-05-20T04:03:02.896Z,6.85
2023-05-20T04:03:36.222Z,6.85
2023-05-20T04:04:06.703Z,6.48
2023-05-20T04:04:36.408Z,6.48
2023-05-20T04:04:54.690Z,5.99
2023-05-20T04:05:26.727Z,6.85
2023-05-20T04:05:59.963Z,6.85
2023-05-20T04:06:30.711Z,7.34
2023-05-20T04:07:03.502Z,7.34
2023-05-20T04:07:34.682Z,6.85
2023-05-20T04:08:07.698Z,6.85
2023-05-20T04:08:35.613Z,6.85
2023-05-20T04:08:54.726Z,7.70
2023-05-20T04:09:26.678Z,8.19
2023-05-20T04:09:43.259Z,7.70
2023-05-20T04:10:15.467Z,8.19
2023-05-20T04:10:36.113Z,8.56
2023-05-20T04:11:02.694Z,8.19
2023-05-20T04:11:34.757Z,8.19
2023-05-20T04:12:06.752Z,9.54
2023-05-20T04:12:35.576Z,8.56
2023-05-20T04:12:54.668Z,9.05
2023-05-20T04:13:27.569Z,9.05
2023-05-20T04:13:58.845Z,9.54
2023-05-20T04:14:33.733Z,8.56
2023-05-20T04:15:02.910Z,9.05
2023-05-20T04:15:36.067Z,8.19
2023-05-20T04:16:06.708Z,8.19
2023-05-20T04:16:37.402Z,8.19
2023-05-20T04:16:54.754Z,8.56
2023-05-20T04:17:26.791Z,8.56
2023-05-20T04:17:44.158Z,9.05
2023-05-20T04:18:14.738Z,9.05
2023-05-20T04:18:35.965Z,8.56
2023-05-20T04:19:03.145Z,9.54
2023-05-20T04:19:36.018Z,8.56
2023-05-20T04:20:06.806Z,9.54
2023-05-20T04:20:37.096Z,9.05
2023-05-20T04:20:54.678Z,9.05
2023-05-20T04:21:26.700Z,9.05
2023-05-20T04:21:44.080Z,9.54
2023-05-20T04:22:14.684Z,8.56
2023-05-20T04:22:35.534Z,9.05
2023-05-20T04:23:02.735Z,8.56
2023-05-20T04:23:34.687Z,9.54
2023-05-20T04:24:07.632Z,8.56
2023-05-20T04:24:35.688Z,8.56
2023-05-20T04:24:54.736Z,9.05
2023-05-20T04:25:26.705Z,9.54
2023-05-20T04:25:43.123Z,9.05
2023-05-20T04:26:15.464Z,8.56
2023-05-20T04:26:36.213Z,9.05
2023-05-20T04:27:02.782Z,9.54
2023-05-20T04:27:34.864Z,9.05
2023-05-20T04:28:06.718Z,9.91
2023-05-20T04:28:35.912Z,10.39
2023-05-20T04:28:54.718Z,9.91
2023-05-20T04:29:27.589Z,10.39
2023-05-20T04:29:58.904Z,10.77
2023-05-20T04:30:31.847Z,11.62
2023-05-20T04:31:02.799Z,11.62
2023-05-20T04:31:36.133Z,12.48
2023-05-20T04:32:07.000Z,12.48
2023-05-20T04:32:37.512Z,12.48
2023-05-20T04:32:54.752Z,12.48
2023-05-20T04:33:26.724Z,13.33
2023-05-20T04:33:44.144Z,13.82
2023-05-20T04:34:14.676Z,13.82
2023-05-20T04:34:35.640Z,14.31
2023-05-20T04:35:02.747Z,13.82
2023-05-20T04:35:35.915Z,14.31
2023-05-20T04:36:07.589Z,13.82
2023-05-20T04:36:35.341Z,14.68
2023-05-20T04:36:54.640Z,15.17
2023-05-20T04:37:26.886Z,15.17
2023-05-20T04:37:58.720Z,15.53
2023-05-20T04:38:30.848Z,15.53
2023-05-20T04:39:02.706Z,16.39
2023-05-20T04:39:34.840Z,16.88
2023-05-20T04:40:06.645Z,16.88
2023-05-20T04:40:36.614Z,17.25
2023-05-20T04:40:54.769Z,17.25
2023-05-20T04:41:27.552Z,18.11
2023-05-20T04:41:58.722Z,18.11
2023-05-20T04:42:31.664Z,18.11
2023-05-20T04:43:02.790Z,17.73
2023-05-20T04:43:35.853Z,18.11
2023-05-20T04:44:06.731Z,18.60
2023-05-20T04:44:36.469Z,18.60
2023-05-20T04:44:54.678Z,18.60
2023-05-20T04:45:26.730Z,18.60
2023-05-20T04:45:44.372Z,19.08
2023-05-20T04:46:14.743Z,18.11
2023-05-20T04:46:36.208Z,18.60
2023-05-20T04:47:02.757Z,19.08
2023-05-20T04:47:35.720Z,19.94
2023-05-20T04:48:07.669Z,20.80
2023-05-20T04:48:35.669Z,20.80
2023-05-20T04:48:54.674Z,21.16
2023-05-20T04:49:26.663Z,21.16
2023-05-20T04:49:43.142Z,21.65
2023-05-20T04:50:15.484Z,22.51
2023-05-20T04:50:35.279Z,22.02
2023-05-20T04:51:02.653Z,22.51
2023-05-20T04:51:34.769Z,22.87
2023-05-20T04:52:06.669Z,24.22
2023-05-20T04:52:35.303Z,24.71
2023-05-20T04:52:55.063Z,25.94
2023-05-20T04:53:27.516Z,25.94
2023-05-20T04:53:58.708Z,27.28
2023-05-20T04:54:31.487Z,28.63
2023-05-20T04:55:02.824Z,29.85
2023-05-20T04:55:36.443Z,31.19
2023-05-20T04:56:06.713Z,32.05
2023-05-20T04:56:35.580Z,33.39
2023-05-20T04:56:54.803Z,33.76
2023-05-20T04:57:26.731Z,35.11
2023-05-20T04:57:43.165Z,36.33
2023-05-20T04:58:14.657Z,36.82
2023-05-20T04:58:35.334Z,37.68
2023-05-20T04:59:05.113Z,37.68
2023-05-20T04:59:34.672Z,38.17
2023-05-20T05:00:08.295Z,38.17
2023-05-20T05:00:35.350Z,39.39
2023-05-20T05:00:54.704Z,39.39
2023-05-20T05:01:26.963Z,39.39
2023-05-20T05:01:58.827Z,40.73
2023-05-20T05:02:30.650Z,40.73
2023-05-20T05:03:02.703Z,41.59
2023-05-20T05:03:36.719Z,42.45
2023-05-20T05:04:06.637Z,42.94
2023-05-20T05:04:35.352Z,42.94
2023-05-20T05:04:54.733Z,43.31
2023-05-20T05:05:27.479Z,43.80
2023-05-20T05:05:58.654Z,44.16
2023-05-20T05:06:31.530Z,43.80
2023-05-20T05:07:02.627Z,43.80
2023-05-20T05:07:36.586Z,43.31
2023-05-20T05:08:06.637Z,43.31
2023-05-20T05:08:35.721Z,43.31
2023-05-20T05:09:10.672Z,42.45
2023-05-20T05:09:35.379Z,42.45
2023-05-20T05:10:00.149Z,41.96
2023-05-20T05:10:30.623Z,41.96
2023-05-20T05:11:03.425Z,41.96
2023-05-20T05:11:34.717Z,41.59
2023-05-20T05:12:07.566Z,41.59
2023-05-20T05:12:35.620Z,42.94
2023-05-20T05:12:54.686Z,41.59
2023-05-20T05:13:28.097Z,41.96
2023-05-20T05:13:43.171Z,42.45
2023-05-20T05:14:15.542Z,42.94
2023-05-20T05:14:35.711Z,42.45
2023-05-20T05:15:02.823Z,42.45
2023-05-20T05:15:35.340Z,42.45
2023-05-20T05:16:06.780Z,42.45
2023-05-20T05:16:35.725Z,41.96
2023-05-20T05:16:55.794Z,41.96
2023-05-20T05:17:27.554Z,41.59
2023-05-20T05:17:58.718Z,41.10
2023-05-20T05:18:31.596Z,40.73
2023-05-20T05:19:02.658Z,40.73
2023-05-20T05:19:34.612Z,39.88
2023-05-20T05:20:06.687Z,39.02
2023-05-20T05:20:36.141Z,39.39
2023-05-20T05:20:56.684Z,38.53
2023-05-20T05:21:26.639Z,38.53
2023-05-20T05:21:43.327Z,38.53
2023-05-20T05:22:14.753Z,38.53
2023-05-20T05:22:35.300Z,38.17
2023-05-20T05:23:03.766Z,39.02
2023-05-20T05:23:35.064Z,39.39
2023-05-20T05:24:07.485Z,39.39
2023-05-20T05:24:35.784Z,39.02
2023-05-20T05:24:54.636Z,40.24
2023-05-20T05:25:26.786Z,40.73
2023-05-20T05:25:43.215Z,41.59
2023-05-20T05:26:15.466Z,42.94
2023-05-20T05:26:35.286Z,43.31
2023-05-20T05:27:02.759Z,43.31
2023-05-20T05:27:34.595Z,44.65
2023-05-20T05:28:06.652Z,45.51
2023-05-20T05:28:36.435Z,46.73
2023-05-20T05:28:54.638Z,47.71
2023-05-20T05:29:27.636Z,48.93
2023-05-20T05:29:58.635Z,49.42
2023-05-20T05:30:31.403Z,49.79
2023-05-20T05:31:02.678Z,51.14
2023-05-20T05:31:36.531Z,51.99
2023-05-20T05:32:06.700Z,53.70
2023-05-20T05:32:35.989Z,55.05
2023-05-20T05:32:54.769Z,56.76
2023-05-20T05:33:26.708Z,59.33
2023-05-20T05:33:43.111Z,61.53
2023-05-20T05:34:14.744Z,64.10
2023-05-20T05:34:35.378Z,66.31
2023-05-20T05:35:04.644Z,69.36
2023-05-20T05:35:35.275Z,72.79
2023-05-20T05:36:07.429Z,74.50
2023-05-20T05:36:35.359Z,75.85
2023-05-20T05:36:54.769Z,77.56
2023-05-20T05:37:26.685Z,80.62
2023-05-20T05:37:43.140Z,81.97
2023-05-20T05:38:15.531Z,83.68
2023-05-20T05:38:35.457Z,84.53
2023-05-20T05:39:02.658Z,85.88
2023-05-20T05:39:35.061Z,86.73
2023-05-20T05:40:06.801Z,87.96
2023-05-20T05:40:36.046Z,87.10
2023-05-20T05:40:54.630Z,87.10
2023-05-20T05:41:27.536Z,86.73
2023-05-20T05:41:58.579Z,86.24
2023-05-20T05:42:31.438Z,85.88
2023-05-20T05:43:02.697Z,86.73
2023-05-20T05:43:35.777Z,85.02
2023-05-20T05:44:06.607Z,85.39
2023-05-20T05:44:36.464Z,85.88
2023-05-20T05:44:54.641Z,85.02
2023-05-20T05:45:26.655Z,86.24
2023-05-20T05:45:44.046Z,86.73
2023-05-20T05:46:14.687Z,87.96
2023-05-20T05:46:35.293Z,88.45
2023-05-20T05:47:02.743Z,91.02
2023-05-20T05:47:34.711Z,93.58
2023-05-20T05:48:07.480Z,95.79
2023-05-20T05:48:35.835Z,97.50
2023-05-20T05:48:54.613Z,98.85
2023-05-20T05:49:26.598Z,100.56
2023-05-20T05:49:43.052Z,101.41
2023-05-20T05:50:15.598Z,104.10
2023-05-20T05:50:35.261Z,104.96
2023-05-20T05:51:02.645Z,106.19
2023-05-20T05:51:35.955Z,108.88
2023-05-20T05:52:06.665Z,110.10
2023-05-20T05:52:35.996Z,111.44
2023-05-20T05:52:54.809Z,113.16
2023-05-20T05:53:29.034Z,116.22
2023-05-20T05:53:58.672Z,117.44
2023-05-20T05:54:31.641Z,120.50
2023-05-20T05:55:02.800Z,121.85
2023-05-20T05:55:36.060Z,124.41
2023-05-20T05:56:06.655Z,124.90
2023-05-20T05:56:37.204Z,125.76
2023-05-20T05:56:54.848Z,127.47
2023-05-20T05:57:26.712Z,128.33
2023-05-20T05:57:44.219Z,128.82
2023-05-20T05:58:14.707Z,130.04
2023-05-20T05:58:37.134Z,130.53
2023-05-20T05:59:02.744Z,132.24
2023-05-20T05:59:35.286Z,137.87
2023-05-20T06:00:07.579Z,137.51
2023-05-20T06:00:35.410Z,133.59
2023-05-20T06:00:54.820Z,133.10
2023-05-20T06:01:27.024Z,133.10
2023-05-20T06:01:43.209Z,133.10
2023-05-20T06:02:15.549Z,133.59
2023-05-20T06:02:35.443Z,134.81
2023-05-20T06:03:03.120Z,137.87
2023-05-20T06:03:35.007Z,137.02
2023-05-20T06:04:06.794Z,137.87
2023-05-20T06:04:35.392Z,137.87
2023-05-20T06:04:54.596Z,137.51
2023-05-20T06:05:30.674Z,137.02
2023-05-20T06:05:58.643Z,136.16
2023-05-20T06:06:31.537Z,135.67
2023-05-20T06:07:02.772Z,137.02
2023-05-20T06:07:36.559Z,137.87
2023-05-20T06:08:06.648Z,137.87
2023-05-20T06:08:35.872Z,137.87
2023-05-20T06:08:54.831Z,139.58
2023-05-20T06:09:26.679Z,140.07
2023-05-20T06:09:43.167Z,140.93
2023-05-20T06:10:14.681Z,139.58
2023-05-20T06:10:35.437Z,139.58
2023-05-20T06:11:03.424Z,140.44
2023-05-20T06:11:34.712Z,143.13